createdAt,value
2023-02-11T00:00:23.919Z,101540.72
2023-02-11T00:02:57.055Z,101541.66
2023-02-11T00:05:30.179Z,101547.66
2023-02-11T00:08:03.132Z,101547.66
2023-02-11T00:10:36.288Z,101554.28
2023-02-11T00:13:11.199Z,101553.38
2023-02-11T00:15:44.812Z,101555.19
2023-02-11T00:18:18.738Z,101550.69
2023-02-11T00:20:51.925Z,101546.47
2023-02-11T00:23:25.221Z,101552.47
2023-02-11T00:25:58.080Z,101547.19
2023-02-11T00:28:32.816Z,101549.88
2023-02-11T00:31:09.125Z,101560.38
2023-02-11T00:33:42.636Z,101553.44
2023-02-11T00:36:17.280Z,101551.69
2023-02-11T00:38:51.571Z,101550.81
2023-02-11T00:41:24.487Z,101547.31
2023-02-11T00:43:58.839Z,101550.81
2023-02-11T00:46:32.146Z,101545.63
2023-02-11T00:49:05.240Z,101541.28
2023-02-11T00:51:38.164Z,101540.25
2023-02-11T00:54:11.293Z,101545.59
2023-02-11T00:56:45.054Z,101546.38
2023-02-11T00:59:19.540Z,101543.75
2023-02-11T01:01:52.630Z,101550.69
2023-02-11T01:04:25.549Z,101549.84
2023-02-11T01:06:58.536Z,101555.78
2023-02-11T01:09:31.644Z,101547.13
2023-02-11T01:12:05.464Z,101543.56
2023-02-11T01:14:40.650Z,101549.75
2023-02-11T01:17:14.025Z,101542.72
2023-02-11T01:19:47.365Z,101537.47
2023-02-11T01:22:20.316Z,101535.81
2023-02-11T01:24:53.336Z,101532.41
2023-02-11T01:27:26.321Z,101534.00
2023-02-11T01:30:01.424Z,101530.56
2023-02-11T01:32:35.100Z,101529.00
2023-02-11T01:35:08.499Z,101529.97
2023-02-11T01:37:42.019Z,101521.38
2023-02-11T01:40:17.260Z,101519.53
2023-02-11T01:42:51.202Z,101515.28
2023-02-11T01:45:43.008Z,101525.56
2023-02-11T01:48:19.286Z,101514.97
2023-02-11T01:50:55.010Z,101515.94
2023-02-11T01:53:46.147Z,101517.72
2023-02-11T01:56:37.892Z,101520.31
2023-02-11T01:59:13.804Z,101515.16
2023-02-11T02:01:50.854Z,101525.53
2023-02-11T02:04:31.282Z,101514.25
2023-02-11T02:07:07.750Z,101515.03
2023-02-11T02:09:41.436Z,101518.31
2023-02-11T02:12:15.179Z,101515.69
2023-02-11T02:14:48.631Z,101516.72
2023-02-11T02:17:27.704Z,101520.72
2023-02-11T02:20:16.327Z,101513.19
2023-02-11T02:23:14.982Z,101514.91
2023-02-11T02:26:06.572Z,101515.75
2023-02-11T02:28:52.465Z,101514.94
2023-02-11T02:31:30.752Z,101519.94
2023-02-11T02:34:08.391Z,101518.88
2023-02-11T02:36:45.055Z,101522.38
2023-02-11T02:39:21.648Z,101520.69
2023-02-11T02:41:55.590Z,101522.47
2023-02-11T02:44:29.372Z,101522.19
2023-02-11T02:47:02.656Z,101517.03
2023-02-11T02:49:37.412Z,101516.16
2023-02-11T02:52:28.221Z,101524.91
2023-02-11T02:55:15.760Z,101511.72
2023-02-11T02:57:57.535Z,101514.44
2023-02-11T03:00:33.407Z,101518.09
2023-02-11T03:03:10.939Z,101528.41
2023-02-11T03:05:49.741Z,101516.91
2023-02-11T03:08:26.216Z,101507.47
2023-02-11T03:11:00.321Z,101516.94
2023-02-11T03:13:35.166Z,101520.38
2023-02-11T03:16:10.580Z,101515.31
2023-02-11T03:18:45.403Z,101518.75
2023-02-11T03:21:21.308Z,101512.31
2023-02-11T03:23:56.468Z,101513.81
2023-02-11T03:26:31.770Z,101511.38
2023-02-11T03:29:09.928Z,101513.47
2023-02-11T03:31:47.719Z,101511.66
2023-02-11T03:34:24.699Z,101512.31
2023-02-11T03:37:02.845Z,101509.63
2023-02-11T03:39:38.058Z,101508.78
2023-02-11T03:42:12.089Z,101500.81
2023-02-11T03:44:47.388Z,101503.25
2023-02-11T03:47:22.487Z,101503.41
2023-02-11T03:49:56.733Z,101500.88
2023-02-11T03:52:31.859Z,101497.59
2023-02-11T03:55:08.510Z,101496.69
2023-02-11T03:57:41.593Z,101503.66
2023-02-11T04:00:15.492Z,101504.66
2023-02-11T04:02:48.527Z,101506.22
2023-02-11T04:05:21.581Z,101505.16
2023-02-11T04:07:56.102Z,101503.66
2023-02-11T04:10:29.583Z,101502.75
2023-02-11T04:13:03.231Z,101504.41
2023-02-11T04:15:37.658Z,101511.25
2023-02-11T04:18:10.518Z,101498.44
2023-02-11T04:20:43.702Z,101494.84
2023-02-11T04:23:17.976Z,101495.78
2023-02-11T04:25:52.089Z,101497.44
2023-02-11T04:28:26.960Z,101499.94
2023-02-11T04:31:00.044Z,101488.50
2023-02-11T04:33:33.043Z,101488.84
2023-02-11T04:36:06.353Z,101496.59
2023-02-11T04:38:40.545Z,101491.16
2023-02-11T04:41:14.327Z,101486.94
2023-02-11T04:43:47.474Z,101495.44
2023-02-11T04:46:20.652Z,101485.16
2023-02-11T04:48:53.965Z,101491.19
2023-02-11T04:51:26.850Z,101491.25
2023-02-11T04:54:01.139Z,101490.50
2023-02-11T04:56:34.170Z,101491.94
2023-02-11T04:59:08.111Z,101487.78
2023-02-11T05:01:41.700Z,101484.56
2023-02-11T05:04:14.847Z,101482.03
2023-02-11T05:06:47.824Z,101493.19
2023-02-11T05:09:22.658Z,101485.38
2023-02-11T05:11:56.715Z,101482.34
2023-02-11T05:14:30.176Z,101489.41
2023-02-11T05:17:03.900Z,101487.84
2023-02-11T05:19:37.286Z,101481.75
2023-02-11T05:22:10.098Z,101487.22
2023-02-11T05:24:44.586Z,101489.34
2023-02-11T05:27:17.561Z,101497.19
2023-02-11T05:29:50.532Z,101494.66
2023-02-11T05:32:23.484Z,101500.59
2023-02-11T05:34:56.738Z,101493.50
2023-02-11T05:37:30.047Z,101500.84
2023-02-11T05:40:04.862Z,101500.22
2023-02-11T05:42:39.683Z,101508.91
2023-02-11T05:45:12.736Z,101504.03
2023-02-11T05:47:45.681Z,101503.16
2023-02-11T05:50:18.922Z,101503.34
2023-02-11T05:52:52.193Z,101508.66
2023-02-11T05:55:26.719Z,101505.91
2023-02-11T05:57:59.766Z,101504.41
2023-02-11T06:00:32.681Z,101507.88
2023-02-11T06:03:05.630Z,101515.56
2023-02-11T06:05:38.740Z,101512.97
2023-02-11T06:08:12.509Z,101511.13
2023-02-11T06:10:47.331Z,101507.56
2023-02-11T06:13:20.347Z,101504.44
2023-02-11T06:15:59.574Z,101502.94
2023-02-11T06:18:33.667Z,101502.41
2023-02-11T06:21:08.043Z,101506.84
2023-02-11T06:23:41.205Z,101506.59
2023-02-11T06:26:19.669Z,101509.41
2023-02-11T06:28:52.571Z,101504.50
2023-02-11T06:31:25.693Z,101510.44
2023-02-11T06:33:59.328Z,101512.41
2023-02-11T06:36:32.476Z,101509.94
2023-02-11T06:39:06.030Z,101502.25
2023-02-11T06:41:40.481Z,101501.50
2023-02-11T06:44:13.803Z,101502.47
2023-02-11T06:46:46.837Z,101501.69
2023-02-11T06:49:19.908Z,101497.44
2023-02-11T06:51:52.902Z,101498.31
2023-02-11T06:54:26.015Z,101495.53
2023-02-11T06:57:00.697Z,101494.84
2023-02-11T06:59:34.012Z,101495.03
2023-02-11T07:02:07.112Z,101499.44
2023-02-11T07:04:40.116Z,101494.28
2023-02-11T07:07:13.053Z,101495.22
2023-02-11T07:09:46.132Z,101487.44
2023-02-11T07:12:21.553Z,101485.75
2023-02-11T07:14:56.965Z,101489.25
2023-02-11T07:17:30.340Z,101490.16
2023-02-11T07:20:03.406Z,101487.59
2023-02-11T07:22:36.396Z,101490.25
2023-02-11T07:25:09.468Z,101483.38
2023-02-11T07:27:43.907Z,101478.16
2023-02-11T07:30:17.040Z,101483.47
2023-02-11T07:32:50.403Z,101482.63
2023-02-11T07:35:23.622Z,101475.75
2023-02-11T07:37:56.910Z,101476.66
2023-02-11T07:40:31.686Z,101474.06
2023-02-11T07:43:05.965Z,101468.88
2023-02-11T07:45:39.809Z,101469.72
2023-02-11T07:48:12.906Z,101468.00
2023-02-11T07:50:46.333Z,101461.06
2023-02-11T07:53:19.245Z,101472.38
2023-02-11T07:55:52.366Z,101463.69
2023-02-11T07:58:26.862Z,101461.88
2023-02-11T08:01:02.210Z,101454.88
2023-02-11T08:03:35.800Z,101460.91
2023-02-11T08:06:11.088Z,101446.88
2023-02-11T08:08:44.663Z,101450.28
2023-02-11T08:11:18.838Z,101446.75
2023-02-11T08:13:54.109Z,101440.53
2023-02-11T08:16:28.503Z,101436.97
2023-02-11T08:19:02.480Z,101434.25
2023-02-11T08:21:35.990Z,101435.03
2023-02-11T08:24:09.320Z,101430.56
2023-02-11T08:26:42.120Z,101440.88
2023-02-11T08:29:16.968Z,101425.94
2023-02-11T08:31:50.308Z,101433.59
2023-02-11T08:34:23.653Z,101433.56
2023-02-11T08:36:56.960Z,101427.28
2023-02-11T08:39:30.184Z,101423.56
2023-02-11T08:42:03.206Z,101423.50
2023-02-11T08:44:37.700Z,101426.72
2023-02-11T08:47:11.165Z,101430.13
2023-02-11T08:49:44.293Z,101433.53
2023-02-11T08:52:17.353Z,101422.03
2023-02-11T08:54:50.914Z,101426.28
2023-02-11T08:57:24.336Z,101416.59
2023-02-11T08:59:58.702Z,101421.84
2023-02-11T09:02:31.997Z,101419.03
2023-02-11T09:05:05.333Z,101416.31
2023-02-11T09:07:38.478Z,101416.28
2023-02-11T09:10:11.503Z,101415.34
2023-02-11T09:12:46.160Z,101420.50
2023-02-11T09:15:21.445Z,101410.78
2023-02-11T09:17:54.423Z,101415.16
2023-02-11T09:20:28.158Z,101409.03
2023-02-11T09:23:01.291Z,101412.41
2023-02-11T09:25:34.349Z,101408.75
2023-02-11T09:28:07.218Z,101407.00
2023-02-11T09:30:41.982Z,101401.72
2023-02-11T09:33:15.634Z,101404.34
2023-02-11T09:35:48.783Z,101400.84
2023-02-11T09:38:22.024Z,101404.34
2023-02-11T09:40:54.890Z,101402.56
2023-02-11T09:43:32.270Z,101394.63
2023-02-11T09:46:07.350Z,101395.47
2023-02-11T09:48:42.755Z,101390.16
2023-02-11T09:51:18.425Z,101377.84
2023-02-11T09:53:55.695Z,101373.41
2023-02-11T09:56:29.328Z,101361.91
2023-02-11T09:59:02.284Z,101357.53
2023-02-11T10:01:39.425Z,101349.31
2023-02-11T10:04:15.571Z,101343.94
2023-02-11T10:06:50.382Z,101339.78
2023-02-11T10:09:30.153Z,101323.16
2023-02-11T10:12:11.408Z,101328.91
2023-02-11T10:15:05.771Z,101322.03
2023-02-11T10:17:46.676Z,101312.38
2023-02-11T10:20:24.811Z,101304.09
2023-02-11T10:22:59.630Z,101303.25
2023-02-11T10:25:35.596Z,101306.78
2023-02-11T10:28:13.684Z,101298.84
2023-02-11T10:30:59.403Z,101297.88
2023-02-11T10:33:38.048Z,101289.50
2023-02-11T10:36:12.310Z,101288.63
2023-02-11T10:38:45.628Z,101278.00
2023-02-11T10:41:21.158Z,101270.13
2023-02-11T10:43:54.091Z,101269.16
2023-02-11T10:46:30.695Z,101264.84
2023-02-11T10:49:05.730Z,101258.50
2023-02-11T10:51:38.701Z,101252.25
2023-02-11T10:54:14.509Z,101256.56
2023-02-11T10:56:50.066Z,101245.06
2023-02-11T10:59:28.362Z,101237.94
2023-02-11T11:02:02.626Z,101236.78
2023-02-11T11:04:40.129Z,101232.31
2023-02-11T11:07:14.521Z,101224.41
2023-02-11T11:09:52.526Z,101227.84
2023-02-11T11:12:35.200Z,101225.31
2023-02-11T11:15:18.781Z,101215.66
2023-02-11T11:17:52.924Z,101214.69
2023-02-11T11:20:28.547Z,101212.84
2023-02-11T11:23:18.570Z,101205.47
2023-02-11T11:26:00.973Z,101196.41
2023-02-11T11:28:39.016Z,101192.16
2023-02-11T11:31:19.052Z,101190.25
2023-02-11T11:33:53.278Z,101183.31
2023-02-11T11:36:33.731Z,101172.56
2023-02-11T11:39:18.595Z,101170.50
2023-02-11T11:41:53.318Z,101161.66
2023-02-11T11:44:27.848Z,101148.47
2023-02-11T11:47:18.221Z,101150.34
2023-02-11T11:49:57.052Z,101132.75
2023-02-11T11:52:39.299Z,101135.44
2023-02-11T11:55:17.324Z,101138.06
2023-02-11T11:57:50.683Z,101136.84
2023-02-11T12:00:27.669Z,101135.22
2023-02-11T12:03:33.811Z,101126.34
2023-02-11T12:06:19.148Z,101120.59
2023-02-11T12:09:02.811Z,101121.78
2023-02-11T12:11:43.292Z,101123.72
2023-02-11T12:14:25.262Z,101119.28
2023-02-11T12:17:03.345Z,101111.25
2023-02-11T12:19:56.281Z,101097.31
2023-02-11T12:22:39.356Z,101099.25
2023-02-11T12:25:26.449Z,101099.53
2023-02-11T12:28:17.036Z,101097.13
2023-02-11T12:31:04.464Z,101085.97
2023-02-11T12:33:50.167Z,101092.78
2023-02-11T12:36:28.741Z,101080.84
2023-02-11T12:39:07.765Z,101078.97
2023-02-11T12:42:08.146Z,101079.72
2023-02-11T12:44:47.123Z,101074.09
2023-02-11T12:47:23.967Z,101082.84
2023-02-11T12:50:10.310Z,101071.00
2023-02-11T12:52:54.390Z,101060.56
2023-02-11T12:55:29.324Z,101064.25
2023-02-11T12:58:04.786Z,101052.91
2023-02-11T13:00:41.715Z,101057.69
2023-02-11T13:03:18.062Z,101053.47
2023-02-11T13:05:53.867Z,101053.66
2023-02-11T13:08:29.553Z,101054.63
2023-02-11T13:11:04.811Z,101051.78
2023-02-11T13:13:47.651Z,101046.72
2023-02-11T13:16:25.377Z,101048.13
2023-02-11T13:19:03.830Z,101042.22
2023-02-11T13:21:48.490Z,101036.72
2023-02-11T13:24:26.674Z,101030.59
2023-02-11T13:27:06.153Z,101024.38
2023-02-11T13:29:51.348Z,101025.53
2023-02-11T13:32:24.353Z,101026.38
2023-02-11T13:35:00.320Z,101017.72
2023-02-11T13:37:37.500Z,101019.56
2023-02-11T13:40:23.018Z,101023.06
2023-02-11T13:42:57.437Z,101015.63
2023-02-11T13:45:34.508Z,101016.88
2023-02-11T13:48:10.095Z,101018.38
2023-02-11T13:50:47.976Z,101006.25
2023-02-11T13:53:22.841Z,101010.41
2023-02-11T13:56:07.860Z,101014.78
2023-02-11T13:58:48.266Z,101001.69
2023-02-11T14:01:36.319Z,101006.28
2023-02-11T14:04:41.299Z,100998.94
2023-02-11T14:07:44.506Z,100996.41
2023-02-11T14:10:36.200Z,100995.25
2023-02-11T14:13:21.281Z,100988.00
2023-02-11T14:16:13.565Z,100989.03
2023-02-11T14:19:00.282Z,100989.47
2023-02-11T14:21:36.844Z,100982.72
2023-02-11T14:24:28.212Z,100977.03
2023-02-11T14:27:05.051Z,100979.16
2023-02-11T14:29:43.134Z,100975.00
2023-02-11T14:32:20.772Z,100964.91
2023-02-11T14:34:59.135Z,100964.16
2023-02-11T14:37:39.337Z,100960.72
2023-02-11T14:40:17.884Z,100963.13
2023-02-11T14:42:51.867Z,100958.94
2023-02-11T14:45:26.965Z,100951.72
2023-02-11T14:48:04.649Z,100949.72
2023-02-11T14:50:43.034Z,100955.19
2023-02-11T14:53:19.348Z,100948.94
2023-02-11T14:55:53.490Z,100936.97
2023-02-11T14:58:27.837Z,100945.31
2023-02-11T15:01:01.935Z,100940.31
2023-02-11T15:03:36.569Z,100944.13
2023-02-11T15:06:17.404Z,100941.72
2023-02-11T15:08:53.860Z,100944.53
2023-02-11T15:11:28.149Z,100943.09
2023-02-11T15:14:07.491Z,100942.44
2023-02-11T15:16:43.812Z,100943.47
2023-02-11T15:19:21.085Z,100933.97
2023-02-11T15:21:54.838Z,100936.69
2023-02-11T15:24:30.868Z,100935.13
2023-02-11T15:27:04.965Z,100926.53
2023-02-11T15:29:39.297Z,100926.72
2023-02-11T15:32:14.926Z,100932.16
2023-02-11T15:34:49.447Z,100928.75
2023-02-11T15:37:23.650Z,100923.59
2023-02-11T15:40:10.004Z,100925.50
2023-02-11T15:42:54.997Z,100921.22
2023-02-11T15:45:31.931Z,100928.38
2023-02-11T15:48:09.185Z,100927.66
2023-02-11T15:50:43.250Z,100921.63
2023-02-11T15:53:22.154Z,100916.50
2023-02-11T15:56:00.647Z,100915.66
2023-02-11T15:58:37.170Z,100921.84
2023-02-11T16:01:11.353Z,100916.66
2023-02-11T16:03:44.761Z,100925.53
2023-02-11T16:06:19.559Z,100917.84
2023-02-11T16:09:03.698Z,100927.66
2023-02-11T16:11:54.028Z,100923.44
2023-02-11T16:14:32.488Z,100927.81
2023-02-11T16:17:07.117Z,100913.03
2023-02-11T16:19:44.687Z,100916.66
2023-02-11T16:22:19.581Z,100922.09
2023-02-11T16:24:54.763Z,100912.63
2023-02-11T16:27:30.560Z,100914.53
2023-02-11T16:30:03.815Z,100909.34
2023-02-11T16:32:38.566Z,100904.28
2023-02-11T16:35:12.348Z,100911.34
2023-02-11T16:37:45.809Z,100911.28
2023-02-11T16:40:19.374Z,100912.16
2023-02-11T16:42:53.828Z,100912.25
2023-02-11T16:45:26.921Z,100909.84
2023-02-11T16:48:00.153Z,100914.25
2023-02-11T16:50:33.346Z,100912.59
2023-02-11T16:53:07.307Z,100895.34
2023-02-11T16:55:40.527Z,100910.13
2023-02-11T16:58:15.537Z,100904.06
2023-02-11T17:00:49.503Z,100902.47
2023-02-11T17:03:24.161Z,100902.53
2023-02-11T17:05:57.217Z,100906.13
2023-02-11T17:08:30.222Z,100911.44
2023-02-11T17:11:03.241Z,100910.50
2023-02-11T17:13:39.611Z,100908.81
2023-02-11T17:16:18.218Z,100905.38
2023-02-11T17:18:51.156Z,100909.81
2023-02-11T17:21:27.636Z,100907.31
2023-02-11T17:24:02.718Z,100907.34
2023-02-11T17:26:36.910Z,100902.94
2023-02-11T17:29:12.565Z,100907.38
2023-02-11T17:31:46.100Z,100907.41
2023-02-11T17:34:19.076Z,100904.78
2023-02-11T17:36:52.023Z,100904.00
2023-02-11T17:39:25.022Z,100902.25
2023-02-11T17:41:58.280Z,100901.50
2023-02-11T17:44:32.961Z,100911.13
2023-02-11T17:47:05.947Z,100901.59
2023-02-11T17:49:39.134Z,100899.81
2023-02-11T17:52:12.103Z,100904.44
2023-02-11T17:54:45.368Z,100904.38
2023-02-11T17:57:18.695Z,100900.22
2023-02-11T17:59:53.344Z,100898.38
2023-02-11T18:02:26.873Z,100901.97
2023-02-11T18:05:00.043Z,100897.66
2023-02-11T18:07:32.962Z,100900.41
2023-02-11T18:10:06.906Z,100899.56
2023-02-11T18:12:41.784Z,100901.38
2023-02-11T18:15:16.275Z,100896.97
2023-02-11T18:17:49.392Z,100898.81
2023-02-11T18:20:22.685Z,100893.66
2023-02-11T18:22:55.921Z,100887.66
2023-02-11T18:25:29.962Z,100897.25
2023-02-11T18:28:03.726Z,100893.16
2023-02-11T18:30:38.031Z,100891.41
2023-02-11T18:33:14.235Z,100895.66
2023-02-11T18:35:49.282Z,100884.44
2023-02-11T18:38:22.923Z,100885.31
2023-02-11T18:40:58.388Z,100891.44
2023-02-11T18:43:34.276Z,100894.13
2023-02-11T18:46:10.023Z,100891.44
2023-02-11T18:48:44.857Z,100895.00
2023-02-11T18:51:19.174Z,100885.53
2023-02-11T18:53:52.344Z,100887.34
2023-02-11T18:56:27.698Z,100886.50
2023-02-11T18:59:01.730Z,100887.28
2023-02-11T19:01:36.896Z,100887.34
2023-02-11T19:04:10.180Z,100882.09
2023-02-11T19:06:43.649Z,100883.13
2023-02-11T19:09:17.377Z,100886.59
2023-02-11T19:11:51.277Z,100883.13
2023-02-11T19:14:25.923Z,100879.03
2023-02-11T19:17:02.212Z,100884.16
2023-02-11T19:19:36.541Z,100880.66
2023-02-11T19:22:10.897Z,100879.03
2023-02-11T19:24:44.887Z,100874.56
2023-02-11T19:27:18.018Z,100868.50
2023-02-11T19:29:51.275Z,100875.44
2023-02-11T19:32:25.854Z,100868.56
2023-02-11T19:34:58.764Z,100873.81
2023-02-11T19:37:31.996Z,100870.28
2023-02-11T19:40:05.641Z,100872.94
2023-02-11T19:42:38.775Z,100869.56
2023-02-11T19:45:11.862Z,100865.25
2023-02-11T19:47:46.204Z,100865.16
2023-02-11T19:50:19.710Z,100862.59
2023-02-11T19:52:52.847Z,100862.63
2023-02-11T19:55:26.201Z,100857.47
2023-02-11T19:57:59.872Z,100848.91
2023-02-11T20:00:33.041Z,100853.22
2023-02-11T20:03:08.141Z,100847.22
2023-02-11T20:05:43.468Z,100832.31
2023-02-11T20:08:18.575Z,100839.22
2023-02-11T20:10:52.067Z,100844.63
2023-02-11T20:13:26.019Z,100843.75
2023-02-11T20:16:03.820Z,100840.25
2023-02-11T20:18:38.626Z,100836.88
2023-02-11T20:21:12.415Z,100835.13
2023-02-11T20:23:46.621Z,100831.63
2023-02-11T20:26:20.801Z,100832.69
2023-02-11T20:28:54.622Z,100831.66
2023-02-11T20:31:27.757Z,100831.53
2023-02-11T20:34:02.966Z,100834.94
2023-02-11T20:36:38.154Z,100828.22
2023-02-11T20:39:17.053Z,100824.16
2023-02-11T20:41:50.690Z,100818.66
2023-02-11T20:44:24.134Z,100820.34
2023-02-11T20:46:57.461Z,100816.13
2023-02-11T20:49:32.070Z,100813.53
2023-02-11T20:52:05.102Z,100818.94
2023-02-11T20:54:38.541Z,100809.25
2023-02-11T20:57:11.745Z,100816.22
2023-02-11T20:59:44.621Z,100806.63
2023-02-11T21:02:17.552Z,100801.38
2023-02-11T21:04:52.115Z,100798.78
2023-02-11T21:07:25.002Z,100799.88
2023-02-11T21:09:58.381Z,100804.19
2023-02-11T21:12:34.048Z,100806.72
2023-02-11T21:15:09.645Z,100800.66
2023-02-11T21:17:42.901Z,100805.06
2023-02-11T21:20:17.435Z,100793.78
2023-02-11T21:22:50.457Z,100795.53
2023-02-11T21:25:23.314Z,100790.28
2023-02-11T21:27:56.402Z,100796.47
2023-02-11T21:30:29.893Z,100789.75
2023-02-11T21:33:02.883Z,100786.13
2023-02-11T21:35:37.740Z,100774.88
2023-02-11T21:38:10.600Z,100775.91
2023-02-11T21:40:44.020Z,100784.63
2023-02-11T21:43:17.156Z,100778.72
2023-02-11T21:45:51.384Z,100769.25
2023-02-11T21:48:25.777Z,100768.28
2023-02-11T21:51:01.834Z,100776.13
2023-02-11T21:53:35.449Z,100775.25
2023-02-11T21:56:09.848Z,100777.13
2023-02-11T21:58:42.844Z,100773.59
2023-02-11T22:01:17.299Z,100766.72
2023-02-11T22:03:50.850Z,100771.13
2023-02-11T22:06:27.270Z,100769.38
2023-02-11T22:09:02.628Z,100766.09
2023-02-11T22:11:35.747Z,100769.53
2023-02-11T22:14:09.045Z,100765.09
2023-02-11T22:16:44.760Z,100751.22
2023-02-11T22:19:18.960Z,100750.41
2023-02-11T22:21:53.332Z,100750.44
2023-02-11T22:24:26.741Z,100754.81
2023-02-11T22:26:59.826Z,100749.59
2023-02-11T22:29:32.804Z,100738.59
2023-02-11T22:32:06.244Z,100748.78
2023-02-11T22:34:39.709Z,100740.31
2023-02-11T22:37:15.095Z,100736.78
2023-02-11T22:39:48.042Z,100734.16
2023-02-11T22:42:21.218Z,100729.88
2023-02-11T22:44:54.107Z,100721.16
2023-02-11T22:47:27.123Z,100722.84
2023-02-11T22:49:59.990Z,100711.53
2023-02-11T22:52:35.683Z,100713.31
2023-02-11T22:55:09.759Z,100700.50
2023-02-11T22:57:43.046Z,100690.81
2023-02-11T23:00:16.904Z,100693.38
2023-02-11T23:02:50.786Z,100690.75
2023-02-11T23:05:23.775Z,100682.91
2023-02-11T23:07:58.557Z,100695.00
2023-02-11T23:10:32.248Z,100676.69
2023-02-11T23:13:05.771Z,100674.97
2023-02-11T23:15:40.752Z,100676.81
2023-02-11T23:18:14.701Z,100673.34
2023-02-11T23:20:47.622Z,100673.25
2023-02-11T23:23:22.172Z,100670.72
2023-02-11T23:25:55.830Z,100672.47
2023-02-11T23:28:29.038Z,100669.00
2023-02-11T23:31:02.060Z,100663.78
2023-02-11T23:33:38.544Z,100671.69
2023-02-11T23:36:11.861Z,100672.56
2023-02-11T23:38:46.520Z,100670.03
2023-02-11T23:41:19.938Z,100665.69
2023-02-11T23:43:53.997Z,100665.63
2023-02-11T23:46:27.826Z,100659.63
2023-02-11T23:49:01.244Z,100662.28
2023-02-11T23:51:34.182Z,100658.03
2023-02-11T23:54:08.689Z,100661.41
2023-02-11T23:56:42.630Z,100659.66
2023-02-11T23:59:15.935Z,100657.88
